createdAt,value
2022-09-28T00:00:01.560Z,0
2022-09-28T00:05:01.915Z,1
2022-09-28T00:10:01.322Z,0
2022-09-28T00:15:01.671Z,0
2022-09-28T00:20:02.220Z,0
2022-09-28T00:25:01.571Z,0
2022-09-28T00:30:01.947Z,0
2022-09-28T00:35:02.304Z,0
2022-09-28T00:40:01.815Z,1
2022-09-28T00:45:02.194Z,0
2022-09-28T00:50:01.524Z,0
2022-09-28T00:55:01.866Z,0
2022-09-28T01:00:02.223Z,0
2022-09-28T01:05:01.692Z,0
2022-09-28T01:10:02.076Z,0
2022-09-28T01:15:01.451Z,0
2022-09-28T01:20:01.856Z,0
2022-09-28T01:25:02.193Z,0
2022-09-28T01:30:01.568Z,0
2022-09-28T01:35:02.040Z,0
2022-09-28T01:40:01.410Z,0
2022-09-28T01:45:01.768Z,0
2022-09-28T01:50:02.101Z,0
2022-09-28T01:55:01.434Z,0
2022-09-28T02:00:01.914Z,0
2022-09-28T02:05:02.294Z,0
2022-09-28T02:10:01.810Z,0
2022-09-28T02:15:02.288Z,0
2022-09-28T02:20:01.853Z,0
2022-09-28T02:25:02.322Z,0
2022-09-28T02:30:01.686Z,0
2022-09-28T02:35:02.065Z,0
2022-09-28T02:40:01.447Z,0
2022-09-28T02:45:01.922Z,0
2022-09-28T02:50:02.260Z,0
2022-09-28T02:55:01.629Z,0
2022-09-28T03:00:02.126Z,0
2022-09-28T03:05:01.608Z,0
2022-09-28T03:10:02.022Z,0
2022-09-28T03:15:01.377Z,0
2022-09-28T03:20:01.806Z,0
2022-09-28T03:25:02.144Z,0
2022-09-28T03:30:01.522Z,0
2022-09-28T03:35:01.991Z,0
2022-09-28T03:40:01.376Z,0
2022-09-28T03:45:01.756Z,0
2022-09-28T03:50:02.214Z,0
2022-09-28T03:55:01.677Z,0
2022-09-28T04:00:02.080Z,0
2022-09-28T04:05:01.551Z,0
2022-09-28T04:10:01.952Z,0
2022-09-28T04:15:01.411Z,0
2022-09-28T04:20:01.869Z,0
2022-09-28T04:25:02.228Z,0
2022-09-28T04:30:01.922Z,0
2022-09-28T04:35:02.292Z,0
2022-09-28T04:40:01.684Z,0
2022-09-28T04:45:02.163Z,0
2022-09-28T04:50:01.632Z,0
2022-09-28T04:55:02.103Z,0
2022-09-28T05:00:01.475Z,0
2022-09-28T05:05:01.845Z,0
2022-09-28T05:10:02.350Z,0
2022-09-28T05:15:01.836Z,0
2022-09-28T05:20:02.255Z,0
2022-09-28T05:25:01.729Z,0
2022-09-28T05:30:02.199Z,0
2022-09-28T05:35:01.669Z,0
2022-09-28T05:40:02.074Z,0
2022-09-28T05:45:01.421Z,0
2022-09-28T05:50:01.879Z,0
2022-09-28T05:55:02.345Z,0
2022-09-28T06:00:01.836Z,0
2022-09-28T06:05:02.320Z,0
2022-09-28T06:10:01.830Z,0
2022-09-28T06:15:02.261Z,0
2022-09-28T06:20:01.807Z,0
2022-09-28T06:25:02.186Z,0
2022-09-28T06:30:01.562Z,0
2022-09-28T06:35:02.010Z,0
2022-09-28T06:40:01.412Z,0
2022-09-28T06:45:01.770Z,0
2022-09-28T06:50:02.232Z,0
2022-09-28T06:55:01.712Z,0
2022-09-28T07:00:02.242Z,0
2022-09-28T07:05:01.723Z,0
2022-09-28T07:10:02.123Z,0
2022-09-28T07:15:01.479Z,0
2022-09-28T07:20:11.533Z,0
2022-09-28T07:25:01.552Z,0
2022-09-28T07:30:02.034Z,0
2022-09-28T07:35:01.499Z,0
2022-09-28T07:40:01.890Z,0
2022-09-28T07:45:02.365Z,0
2022-09-28T07:50:01.827Z,0
2022-09-28T07:55:06.813Z,0
2022-09-28T08:00:01.842Z,0
2022-09-28T08:05:02.214Z,0
2022-09-28T08:10:01.593Z,0
2022-09-28T08:15:01.984Z,0
2022-09-28T08:20:01.564Z,0
2022-09-28T08:25:01.914Z,39
2022-09-28T08:30:02.439Z,8
2022-09-28T08:35:01.808Z,9
2022-09-28T08:40:02.321Z,8
2022-09-28T08:45:01.824Z,8
2022-09-28T08:50:02.175Z,40
2022-09-28T08:55:01.525Z,30
2022-09-28T09:00:01.907Z,7
2022-09-28T09:05:02.432Z,15
2022-09-28T09:10:02.050Z,30
2022-09-28T09:15:01.533Z,46
2022-09-28T09:20:02.087Z,51
2022-09-28T09:25:01.573Z,38
2022-09-28T09:30:02.047Z,41
2022-09-28T09:35:01.521Z,35
2022-09-28T09:40:02.030Z,35
2022-09-28T09:45:01.519Z,55
2022-09-28T09:50:05.347Z,82
2022-09-28T09:55:01.831Z,101
2022-09-28T10:00:02.228Z,119
2022-09-28T10:05:01.701Z,141
2022-09-28T10:10:02.208Z,137
2022-09-28T10:15:01.655Z,145
2022-09-28T10:20:02.063Z,135
2022-09-28T10:25:01.409Z,141
2022-09-28T10:30:01.762Z,140
2022-09-28T10:35:02.239Z,144
2022-09-28T10:40:01.752Z,150
2022-09-28T10:45:02.101Z,153
2022-09-28T10:50:01.566Z,162
2022-09-28T10:55:01.921Z,152
2022-09-28T11:00:02.305Z,203
2022-09-28T11:05:01.771Z,338
2022-09-28T11:10:02.282Z,412
2022-09-28T11:15:01.660Z,369
2022-09-28T11:20:02.216Z,350
2022-09-28T11:25:01.592Z,332
2022-09-28T11:30:02.084Z,329
2022-09-28T11:35:01.436Z,324
2022-09-28T11:40:01.945Z,360
2022-09-28T11:45:02.315Z,369
2022-09-28T11:50:01.788Z,347
2022-09-28T11:55:02.252Z,399
2022-09-28T12:00:01.748Z,350
2022-09-28T12:05:02.226Z,174
2022-09-28T12:10:01.637Z,88
2022-09-28T12:15:02.013Z,217
2022-09-28T12:20:01.586Z,273
2022-09-28T12:25:01.988Z,326
2022-09-28T12:30:01.353Z,351
2022-09-28T12:35:01.686Z,351
2022-09-28T12:40:02.356Z,398
2022-09-28T12:45:01.857Z,382
2022-09-28T12:55:01.729Z,400
2022-09-28T13:00:02.250Z,358
2022-09-28T13:05:01.604Z,360
2022-09-28T13:10:02.123Z,390
2022-09-28T13:15:01.613Z,394
2022-09-28T13:20:01.997Z,443
2022-09-28T13:25:01.521Z,403
2022-09-28T13:30:02.067Z,396
2022-09-28T13:35:01.572Z,350
2022-09-28T13:40:01.972Z,375
2022-09-28T13:45:01.463Z,412
2022-09-28T13:50:01.926Z,445
2022-09-28T13:55:02.416Z,367
2022-09-28T14:00:01.907Z,405
2022-09-28T14:05:02.393Z,377
2022-09-28T14:10:01.901Z,424
2022-09-28T14:15:02.258Z,406
2022-09-28T14:20:01.709Z,387
2022-09-28T14:25:02.075Z,428
2022-09-28T14:30:01.563Z,384
2022-09-28T14:35:01.907Z,408
2022-09-28T14:40:02.410Z,367
2022-09-28T14:45:05.396Z,364
2022-09-28T14:50:01.602Z,378
2022-09-28T14:55:02.075Z,378
2022-09-28T15:00:01.576Z,387
2022-09-28T15:05:02.049Z,391
2022-09-28T15:10:01.536Z,387
2022-09-28T15:15:02.201Z,427
2022-09-28T15:20:01.783Z,462
2022-09-28T15:25:02.899Z,453
2022-09-28T15:30:01.643Z,439
2022-09-28T15:35:02.126Z,397
2022-09-28T15:40:01.652Z,385
2022-09-28T15:45:02.122Z,364
2022-09-28T15:50:01.585Z,375
2022-09-28T15:55:02.056Z,392
2022-09-28T16:00:01.422Z,392
2022-09-28T16:05:01.775Z,374
2022-09-28T16:10:02.407Z,421
2022-09-28T16:15:01.813Z,372
2022-09-28T16:20:02.380Z,364
2022-09-28T16:25:01.874Z,398
2022-09-28T16:30:02.348Z,264
2022-09-28T16:35:01.820Z,101
2022-09-28T16:40:02.222Z,101
2022-09-28T16:45:01.759Z,11
2022-09-28T16:50:02.106Z,0
2022-09-28T16:55:01.459Z,2
2022-09-28T17:00:01.961Z,1
2022-09-28T17:05:01.320Z,0
2022-09-28T17:10:01.832Z,1
2022-09-28T17:15:02.184Z,1
2022-09-28T17:20:01.727Z,1
2022-09-28T17:25:02.089Z,0
2022-09-28T17:30:01.566Z,0
2022-09-28T17:35:23.203Z,1
2022-09-28T17:40:01.875Z,1
2022-09-28T17:45:02.235Z,1
2022-09-28T17:50:01.716Z,1
2022-09-28T17:55:02.061Z,0
2022-09-28T18:00:01.431Z,1
2022-09-28T18:05:01.772Z,1
2022-09-28T18:10:02.140Z,1
2022-09-28T18:15:01.529Z,1
2022-09-28T18:20:02.069Z,0
2022-09-28T18:25:01.425Z,1
2022-09-28T18:30:01.893Z,1
2022-09-28T18:35:02.356Z,1
2022-09-28T18:40:01.867Z,1
2022-09-28T18:45:02.347Z,0
2022-09-28T18:50:01.823Z,1
2022-09-28T18:55:02.176Z,0
2022-09-28T19:00:01.650Z,1
2022-09-28T19:05:02.126Z,0
2022-09-28T19:10:01.633Z,1
2022-09-28T19:15:02.119Z,2
2022-09-28T19:20:01.563Z,1
2022-09-28T19:25:01.917Z,1
2022-09-28T19:30:02.356Z,0
2022-09-28T19:35:01.843Z,0
2022-09-28T19:40:02.382Z,1
2022-09-28T19:45:01.729Z,1
2022-09-28T19:50:02.201Z,1
2022-09-28T19:55:01.549Z,28
2022-09-28T20:00:03.415Z,85
2022-09-28T20:05:02.318Z,21
2022-09-28T20:10:01.857Z,112
2022-09-28T20:15:02.332Z,165
2022-09-28T20:20:01.872Z,65
2022-09-28T20:25:02.260Z,39
2022-09-28T20:30:01.745Z,21
2022-09-28T20:35:02.226Z,57
2022-09-28T20:40:01.632Z,65
2022-09-28T20:45:01.993Z,51
2022-09-28T20:50:01.464Z,69
2022-09-28T20:55:01.816Z,15
2022-09-28T21:00:02.317Z,21
2022-09-28T21:05:01.722Z,28
2022-09-28T21:10:02.232Z,13
2022-09-28T21:15:05.723Z,13
2022-09-28T21:20:01.988Z,8
2022-09-28T21:25:01.364Z,5
2022-09-28T21:30:01.737Z,5
2022-09-28T21:35:02.204Z,8
2022-09-28T21:40:01.708Z,8
2022-09-28T21:45:02.197Z,8
2022-09-28T21:50:01.527Z,14
2022-09-28T21:55:01.994Z,26
2022-09-28T22:00:01.414Z,61
2022-09-28T22:05:02.537Z,83
2022-09-28T22:10:02.044Z,103
2022-09-28T22:15:01.595Z,124
2022-09-28T22:20:01.803Z,156
2022-09-28T22:25:02.142Z,443
2022-09-28T22:30:01.504Z,429
2022-09-28T22:35:01.850Z,411
2022-09-28T22:40:02.371Z,430
2022-09-28T22:45:01.733Z,370
2022-09-28T22:50:02.201Z,361
2022-09-28T22:55:01.546Z,371
2022-09-28T23:00:01.922Z,338
2022-09-28T23:05:02.391Z,312
2022-09-28T23:10:01.765Z,275
2022-09-28T23:15:02.140Z,237
2022-09-28T23:20:01.691Z,192
2022-09-28T23:25:02.073Z,165
2022-09-28T23:30:01.430Z,166
2022-09-28T23:35:01.898Z,151
2022-09-28T23:40:02.303Z,171
2022-09-28T23:45:01.813Z,123
2022-09-28T23:50:02.188Z,145
2022-09-28T23:55:01.534Z,118
